sensor_id;sensor_type;location;lat;lon;timestamp;temperature;humidity
11736;DHT22;5924;51.398;7.088;2024-02-23T00:02:18;6.00;99.90
11736;DHT22;5924;51.398;7.088;2024-02-23T00:04:44;6.00;99.90
11736;DHT22;5924;51.398;7.088;2024-02-23T00:07:10;6.00;99.90
11736;DHT22;5924;51.398;7.088;2024-02-23T00:09:36;6.10;99.90
11736;DHT22;5924;51.398;7.088;2024-02-23T00:12:02;5.90;99.90
11736;DHT22;5924;51.398;7.088;2024-02-23T00:14:29;5.80;99.90
11736;DHT22;5924;51.398;7.088;2024-02-23T00:16:56;5.70;99.90
11736;DHT22;5924;51.398;7.088;2024-02-23T00:19:23;5.70;99.90
11736;DHT22;5924;51.398;7.088;2024-02-23T00:21:49;5.60;99.90
11736;DHT22;5924;51.398;7.088;2024-02-23T00:24:17;5.60;99.90
11736;DHT22;5924;51.398;7.088;2024-02-23T00:26:43;5.60;99.90
11736;DHT22;5924;51.398;7.088;2024-02-23T00:29:09;5.50;99.90
11736;DHT22;5924;51.398;7.088;2024-02-23T00:31:38;5.50;99.90
11736;DHT22;5924;51.398;7.088;2024-02-23T00:34:04;5.40;99.90
11736;DHT22;5924;51.398;7.088;2024-02-23T00:36:30;5.40;99.90
11736;DHT22;5924;51.398;7.088;2024-02-23T00:38:56;5.40;99.90
11736;DHT22;5924;51.398;7.088;2024-02-23T00:41:22;5.40;99.90
11736;DHT22;5924;51.398;7.088;2024-02-23T00:43:47;5.50;99.90
11736;DHT22;5924;51.398;7.088;2024-02-23T00:46:13;5.40;99.90
11736;DHT22;5924;51.398;7.088;2024-02-23T00:48:40;5.40;99.90
11736;DHT22;5924;51.398;7.088;2024-02-23T00:51:05;5.30;99.90
11736;DHT22;5924;51.398;7.088;2024-02-23T00:53:33;5.30;99.90
11736;DHT22;5924;51.398;7.088;2024-02-23T00:55:58;7.00;99.90
11736;DHT22;5924;51.398;7.088;2024-02-23T00:58:24;5.30;99.90
11736;DHT22;5924;51.398;7.088;2024-02-23T01:00:50;5.30;99.90
11736;DHT22;5924;51.398;7.088;2024-02-23T01:03:15;5.30;99.90
11736;DHT22;5924;51.398;7.088;2024-02-23T01:05:41;5.20;99.90
11736;DHT22;5924;51.398;7.088;2024-02-23T01:08:08;5.20;99.90
11736;DHT22;5924;51.398;7.088;2024-02-23T01:10:34;5.20;99.90
11736;DHT22;5924;51.398;7.088;2024-02-23T01:13:00;5.10;99.90
11736;DHT22;5924;51.398;7.088;2024-02-23T01:15:26;5.10;99.90
11736;DHT22;5924;51.398;7.088;2024-02-23T01:17:52;5.10;99.90
11736;DHT22;5924;51.398;7.088;2024-02-23T01:20:17;5.00;99.90
11736;DHT22;5924;51.398;7.088;2024-02-23T01:22:43;4.90;99.90
11736;DHT22;5924;51.398;7.088;2024-02-23T01:25:09;4.80;99.90
11736;DHT22;5924;51.398;7.088;2024-02-23T01:27:34;4.70;99.90
11736;DHT22;5924;51.398;7.088;2024-02-23T01:30:00;4.70;99.90
11736;DHT22;5924;51.398;7.088;2024-02-23T01:32:26;4.70;99.90
11736;DHT22;5924;51.398;7.088;2024-02-23T01:34:52;4.60;99.90
11736;DHT22;5924;51.398;7.088;2024-02-23T01:37:17;4.60;99.90
11736;DHT22;5924;51.398;7.088;2024-02-23T01:39:43;4.80;99.90
11736;DHT22;5924;51.398;7.088;2024-02-23T01:42:09;4.80;99.90
11736;DHT22;5924;51.398;7.088;2024-02-23T01:44:34;4.90;99.90
11736;DHT22;5924;51.398;7.088;2024-02-23T01:47:00;7.40;99.90
11736;DHT22;5924;51.398;7.088;2024-02-23T01:49:26;5.00;99.90
11736;DHT22;5924;51.398;7.088;2024-02-23T01:51:57;3.00;99.90
11736;DHT22;5924;51.398;7.088;2024-02-23T01:54:24;5.10;99.90
11736;DHT22;5924;51.398;7.088;2024-02-23T01:56:51;5.20;99.90
11736;DHT22;5924;51.398;7.088;2024-02-23T01:59:16;5.30;99.90
11736;DHT22;5924;51.398;7.088;2024-02-23T02:01:46;5.30;99.90
11736;DHT22;5924;51.398;7.088;2024-02-23T02:04:12;5.30;99.90
11736;DHT22;5924;51.398;7.088;2024-02-23T02:06:38;5.30;99.90
11736;DHT22;5924;51.398;7.088;2024-02-23T02:09:04;5.20;99.90
11736;DHT22;5924;51.398;7.088;2024-02-23T02:11:30;5.10;99.90
11736;DHT22;5924;51.398;7.088;2024-02-23T02:13:56;5.20;99.90
11736;DHT22;5924;51.398;7.088;2024-02-23T02:16:22;5.20;99.90
11736;DHT22;5924;51.398;7.088;2024-02-23T02:18:48;5.30;99.90
11736;DHT22;5924;51.398;7.088;2024-02-23T02:21:13;5.30;99.90
11736;DHT22;5924;51.398;7.088;2024-02-23T02:23:39;5.30;99.90
11736;DHT22;5924;51.398;7.088;2024-02-23T02:26:05;5.40;99.90
11736;DHT22;5924;51.398;7.088;2024-02-23T02:28:31;5.40;99.90
11736;DHT22;5924;51.398;7.088;2024-02-23T02:30:56;5.40;99.90
11736;DHT22;5924;51.398;7.088;2024-02-23T02:33:23;5.50;99.90
11736;DHT22;5924;51.398;7.088;2024-02-23T02:35:49;5.50;99.90
11736;DHT22;5924;51.398;7.088;2024-02-23T02:38:15;5.50;99.90
11736;DHT22;5924;51.398;7.088;2024-02-23T02:40:41;5.40;99.90
11736;DHT22;5924;51.398;7.088;2024-02-23T02:43:07;5.40;99.90
11736;DHT22;5924;51.398;7.088;2024-02-23T02:45:33;5.40;99.90
11736;DHT22;5924;51.398;7.088;2024-02-23T02:48:02;5.30;99.90
11736;DHT22;5924;51.398;7.088;2024-02-23T02:50:28;5.30;99.90
11736;DHT22;5924;51.398;7.088;2024-02-23T02:52:54;5.30;99.90
11736;DHT22;5924;51.398;7.088;2024-02-23T02:55:19;5.30;99.90
11736;DHT22;5924;51.398;7.088;2024-02-23T02:57:45;3.30;99.90
11736;DHT22;5924;51.398;7.088;2024-02-23T03:00:11;5.30;99.90
11736;DHT22;5924;51.398;7.088;2024-02-23T03:02:38;5.30;99.90
11736;DHT22;5924;51.398;7.088;2024-02-23T03:05:04;5.30;99.90
11736;DHT22;5924;51.398;7.088;2024-02-23T03:07:30;5.30;99.90
11736;DHT22;5924;51.398;7.088;2024-02-23T03:09:56;6.60;99.90
11736;DHT22;5924;51.398;7.088;2024-02-23T03:12:21;5.20;99.90
11736;DHT22;5924;51.398;7.088;2024-02-23T03:14:47;5.20;99.90
11736;DHT22;5924;51.398;7.088;2024-02-23T03:17:13;5.20;99.90
11736;DHT22;5924;51.398;7.088;2024-02-23T03:19:39;5.20;99.90
11736;DHT22;5924;51.398;7.088;2024-02-23T03:22:04;5.20;99.90
11736;DHT22;5924;51.398;7.088;2024-02-23T03:24:30;5.10;99.90
11736;DHT22;5924;51.398;7.088;2024-02-23T03:26:56;5.20;99.90
11736;DHT22;5924;51.398;7.088;2024-02-23T03:29:22;5.20;99.90
11736;DHT22;5924;51.398;7.088;2024-02-23T03:31:55;5.20;99.90
11736;DHT22;5924;51.398;7.088;2024-02-23T03:34:20;5.30;99.90
11736;DHT22;5924;51.398;7.088;2024-02-23T03:36:46;5.20;99.90
11736;DHT22;5924;51.398;7.088;2024-02-23T03:39:11;5.20;99.90
11736;DHT22;5924;51.398;7.088;2024-02-23T03:41:37;5.20;99.90
11736;DHT22;5924;51.398;7.088;2024-02-23T03:44:03;7.00;99.90
11736;DHT22;5924;51.398;7.088;2024-02-23T03:46:28;5.20;99.90
11736;DHT22;5924;51.398;7.088;2024-02-23T03:48:54;5.20;99.90
11736;DHT22;5924;51.398;7.088;2024-02-23T03:51:20;5.20;99.90
11736;DHT22;5924;51.398;7.088;2024-02-23T03:53:45;5.20;99.90
11736;DHT22;5924;51.398;7.088;2024-02-23T03:56:12;5.30;99.90
11736;DHT22;5924;51.398;7.088;2024-02-23T03:58:38;5.20;99.90
11736;DHT22;5924;51.398;7.088;2024-02-23T04:01:04;5.20;99.90
11736;DHT22;5924;51.398;7.088;2024-02-23T04:03:29;5.20;99.90
11736;DHT22;5924;51.398;7.088;2024-02-23T04:05:55;5.20;99.90
11736;DHT22;5924;51.398;7.088;2024-02-23T04:08:21;5.10;99.90
11736;DHT22;5924;51.398;7.088;2024-02-23T04:10:46;7.20;99.90
11736;DHT22;5924;51.398;7.088;2024-02-23T04:13:12;5.20;99.90
11736;DHT22;5924;51.398;7.088;2024-02-23T04:15:43;5.20;99.90
11736;DHT22;5924;51.398;7.088;2024-02-23T04:18:09;5.20;99.90
11736;DHT22;5924;51.398;7.088;2024-02-23T04:20:34;5.20;99.90
11736;DHT22;5924;51.398;7.088;2024-02-23T04:23:00;5.30;99.90
11736;DHT22;5924;51.398;7.088;2024-02-23T04:25:26;5.20;99.90
11736;DHT22;5924;51.398;7.088;2024-02-23T04:27:51;5.20;99.90
11736;DHT22;5924;51.398;7.088;2024-02-23T04:30:17;5.20;99.90
11736;DHT22;5924;51.398;7.088;2024-02-23T04:32:42;5.20;99.90
11736;DHT22;5924;51.398;7.088;2024-02-23T04:35:09;5.20;99.90
11736;DHT22;5924;51.398;7.088;2024-02-23T04:37:35;5.20;99.90
11736;DHT22;5924;51.398;7.088;2024-02-23T04:40:01;5.20;99.90
11736;DHT22;5924;51.398;7.088;2024-02-23T04:42:26;5.20;99.90
11736;DHT22;5924;51.398;7.088;2024-02-23T04:44:53;5.20;99.90
11736;DHT22;5924;51.398;7.088;2024-02-23T04:47:20;5.20;99.90
11736;DHT22;5924;51.398;7.088;2024-02-23T04:49:46;5.20;99.90
11736;DHT22;5924;51.398;7.088;2024-02-23T04:52:12;7.60;99.90
11736;DHT22;5924;51.398;7.088;2024-02-23T04:54:37;5.30;99.90
11736;DHT22;5924;51.398;7.088;2024-02-23T04:57:03;5.20;99.90
11736;DHT22;5924;51.398;7.088;2024-02-23T04:59:29;5.20;99.90
11736;DHT22;5924;51.398;7.088;2024-02-23T05:01:57;5.30;99.90
11736;DHT22;5924;51.398;7.088;2024-02-23T05:04:23;6.00;99.90
11736;DHT22;5924;51.398;7.088;2024-02-23T05:06:48;5.20;99.90
11736;DHT22;5924;51.398;7.088;2024-02-23T05:09:14;5.30;99.90
11736;DHT22;5924;51.398;7.088;2024-02-23T05:11:39;5.30;99.90
11736;DHT22;5924;51.398;7.088;2024-02-23T05:14:05;5.20;99.90
11736;DHT22;5924;51.398;7.088;2024-02-23T05:16:31;5.20;99.90
11736;DHT22;5924;51.398;7.088;2024-02-23T05:18:57;5.30;99.90
11736;DHT22;5924;51.398;7.088;2024-02-23T05:21:23;5.30;99.90
11736;DHT22;5924;51.398;7.088;2024-02-23T05:23:49;7.20;99.90
11736;DHT22;5924;51.398;7.088;2024-02-23T05:26:15;5.30;99.90
11736;DHT22;5924;51.398;7.088;2024-02-23T05:28:40;5.30;99.90
11736;DHT22;5924;51.398;7.088;2024-02-23T05:31:07;5.30;99.90
11736;DHT22;5924;51.398;7.088;2024-02-23T05:33:34;5.30;99.90
11736;DHT22;5924;51.398;7.088;2024-02-23T05:36:00;5.30;99.90
11736;DHT22;5924;51.398;7.088;2024-02-23T05:38:26;5.20;99.90
11736;DHT22;5924;51.398;7.088;2024-02-23T05:40:52;5.20;99.90
11736;DHT22;5924;51.398;7.088;2024-02-23T05:43:17;5.20;99.90
11736;DHT22;5924;51.398;7.088;2024-02-23T05:45:43;5.20;99.90
11736;DHT22;5924;51.398;7.088;2024-02-23T05:48:10;5.20;99.90
11736;DHT22;5924;51.398;7.088;2024-02-23T05:50:37;5.10;99.90
11736;DHT22;5924;51.398;7.088;2024-02-23T05:53:02;5.00;99.90
11736;DHT22;5924;51.398;7.088;2024-02-23T05:55:30;4.90;99.90
11736;DHT22;5924;51.398;7.088;2024-02-23T05:57:55;4.80;99.90
11736;DHT22;5924;51.398;7.088;2024-02-23T06:00:21;4.70;99.90
11736;DHT22;5924;51.398;7.088;2024-02-23T06:02:47;4.70;99.90
11736;DHT22;5924;51.398;7.088;2024-02-23T06:05:13;4.60;99.90
11736;DHT22;5924;51.398;7.088;2024-02-23T06:07:40;4.60;99.90
11736;DHT22;5924;51.398;7.088;2024-02-23T06:10:07;4.60;99.90
11736;DHT22;5924;51.398;7.088;2024-02-23T06:12:32;4.60;99.90
11736;DHT22;5924;51.398;7.088;2024-02-23T06:14:58;4.60;99.90
11736;DHT22;5924;51.398;7.088;2024-02-23T06:17:24;4.80;99.90
11736;DHT22;5924;51.398;7.088;2024-02-23T06:19:50;4.70;99.90
11736;DHT22;5924;51.398;7.088;2024-02-23T06:22:18;4.80;99.90
11736;DHT22;5924;51.398;7.088;2024-02-23T06:24:47;5.00;99.90
11736;DHT22;5924;51.398;7.088;2024-02-23T06:27:12;6.50;99.90
11736;DHT22;5924;51.398;7.088;2024-02-23T06:29:38;5.10;99.90
11736;DHT22;5924;51.398;7.088;2024-02-23T06:32:05;5.00;99.90
11736;DHT22;5924;51.398;7.088;2024-02-23T06:34:31;5.00;99.90
11736;DHT22;5924;51.398;7.088;2024-02-23T06:36:57;5.00;99.90
11736;DHT22;5924;51.398;7.088;2024-02-23T06:39:22;5.00;99.90
11736;DHT22;5924;51.398;7.088;2024-02-23T06:41:48;4.90;99.90
11736;DHT22;5924;51.398;7.088;2024-02-23T06:44:14;4.80;99.90
11736;DHT22;5924;51.398;7.088;2024-02-23T06:46:39;4.80;99.90
11736;DHT22;5924;51.398;7.088;2024-02-23T06:49:06;4.80;99.90
11736;DHT22;5924;51.398;7.088;2024-02-23T06:51:32;4.80;99.90
11736;DHT22;5924;51.398;7.088;2024-02-23T06:53:57;4.80;99.90
11736;DHT22;5924;51.398;7.088;2024-02-23T06:56:24;4.70;99.90
11736;DHT22;5924;51.398;7.088;2024-02-23T06:58:49;4.70;99.90
11736;DHT22;5924;51.398;7.088;2024-02-23T07:01:15;4.70;99.90
11736;DHT22;5924;51.398;7.088;2024-02-23T07:03:41;4.70;99.90
11736;DHT22;5924;51.398;7.088;2024-02-23T07:06:08;4.70;99.90
11736;DHT22;5924;51.398;7.088;2024-02-23T07:08:37;3.80;99.90
11736;DHT22;5924;51.398;7.088;2024-02-23T07:11:03;4.70;99.90
11736;DHT22;5924;51.398;7.088;2024-02-23T07:13:29;4.70;99.90
11736;DHT22;5924;51.398;7.088;2024-02-23T07:15:55;4.60;99.90
11736;DHT22;5924;51.398;7.088;2024-02-23T07:18:22;4.70;99.90
11736;DHT22;5924;51.398;7.088;2024-02-23T07:20:47;4.70;99.90
11736;DHT22;5924;51.398;7.088;2024-02-23T07:23:13;4.70;99.90
11736;DHT22;5924;51.398;7.088;2024-02-23T07:25:41;4.80;99.90
11736;DHT22;5924;51.398;7.088;2024-02-23T07:28:07;4.70;99.90
11736;DHT22;5924;51.398;7.088;2024-02-23T07:30:33;4.70;99.90
11736;DHT22;5924;51.398;7.088;2024-02-23T07:33:00;4.70;99.90
11736;DHT22;5924;51.398;7.088;2024-02-23T07:35:26;4.70;99.90
11736;DHT22;5924;51.398;7.088;2024-02-23T07:37:52;4.80;99.90
11736;DHT22;5924;51.398;7.088;2024-02-23T07:40:17;4.80;99.90
11736;DHT22;5924;51.398;7.088;2024-02-23T07:42:43;4.80;99.90
11736;DHT22;5924;51.398;7.088;2024-02-23T07:45:09;4.80;99.90
11736;DHT22;5924;51.398;7.088;2024-02-23T07:47:36;4.80;99.90
11736;DHT22;5924;51.398;7.088;2024-02-23T07:50:02;4.80;99.90
11736;DHT22;5924;51.398;7.088;2024-02-23T07:52:27;4.90;99.90
11736;DHT22;5924;51.398;7.088;2024-02-23T07:54:53;5.10;99.90
11736;DHT22;5924;51.398;7.088;2024-02-23T07:57:19;5.20;99.90
11736;DHT22;5924;51.398;7.088;2024-02-23T07:59:45;5.30;99.90
11736;DHT22;5924;51.398;7.088;2024-02-23T08:02:10;5.30;99.90
11736;DHT22;5924;51.398;7.088;2024-02-23T08:04:36;5.30;99.90
11736;DHT22;5924;51.398;7.088;2024-02-23T08:07:03;5.40;99.90
11736;DHT22;5924;51.398;7.088;2024-02-23T08:09:29;5.10;99.90
11736;DHT22;5924;51.398;7.088;2024-02-23T08:11:55;5.10;99.90
11736;DHT22;5924;51.398;7.088;2024-02-23T08:14:21;5.10;99.90
11736;DHT22;5924;51.398;7.088;2024-02-23T08:16:46;5.10;99.90
11736;DHT22;5924;51.398;7.088;2024-02-23T08:19:12;5.00;99.90
11736;DHT22;5924;51.398;7.088;2024-02-23T08:21:38;5.20;99.90
11736;DHT22;5924;51.398;7.088;2024-02-23T08:24:05;5.30;99.90
11736;DHT22;5924;51.398;7.088;2024-02-23T08:26:30;5.50;99.90
11736;DHT22;5924;51.398;7.088;2024-02-23T08:28:56;5.80;99.90
11736;DHT22;5924;51.398;7.088;2024-02-23T08:31:22;7.40;99.90
11736;DHT22;5924;51.398;7.088;2024-02-23T08:33:47;6.10;99.90
11736;DHT22;5924;51.398;7.088;2024-02-23T08:36:13;6.30;99.90
11736;DHT22;5924;51.398;7.088;2024-02-23T08:38:39;6.40;99.90
11736;DHT22;5924;51.398;7.088;2024-02-23T08:41:04;6.40;99.90
11736;DHT22;5924;51.398;7.088;2024-02-23T08:43:30;6.40;99.90
11736;DHT22;5924;51.398;7.088;2024-02-23T08:45:56;6.60;99.90
11736;DHT22;5924;51.398;7.088;2024-02-23T08:48:21;6.60;99.90
11736;DHT22;5924;51.398;7.088;2024-02-23T08:50:48;6.60;99.90
11736;DHT22;5924;51.398;7.088;2024-02-23T08:53:14;6.60;99.90
11736;DHT22;5924;51.398;7.088;2024-02-23T08:55:40;6.70;99.90
11736;DHT22;5924;51.398;7.088;2024-02-23T08:58:06;8.40;99.90
11736;DHT22;5924;51.398;7.088;2024-02-23T09:00:32;6.80;99.90
11736;DHT22;5924;51.398;7.088;2024-02-23T09:02:58;6.80;99.90
11736;DHT22;5924;51.398;7.088;2024-02-23T09:05:23;8.30;99.90
11736;DHT22;5924;51.398;7.088;2024-02-23T09:07:49;6.80;99.90
11736;DHT22;5924;51.398;7.088;2024-02-23T09:10:15;6.80;99.90
11736;DHT22;5924;51.398;7.088;2024-02-23T09:12:41;6.80;99.90
11736;DHT22;5924;51.398;7.088;2024-02-23T09:15:07;6.90;99.90
11736;DHT22;5924;51.398;7.088;2024-02-23T09:17:33;6.80;99.90
11736;DHT22;5924;51.398;7.088;2024-02-23T09:19:59;7.00;99.90
11736;DHT22;5924;51.398;7.088;2024-02-23T09:22:25;7.10;99.90
11736;DHT22;5924;51.398;7.088;2024-02-23T09:24:51;7.10;99.90
11736;DHT22;5924;51.398;7.088;2024-02-23T09:27:20;7.20;99.90
11736;DHT22;5924;51.398;7.088;2024-02-23T09:29:46;7.10;99.90
11736;DHT22;5924;51.398;7.088;2024-02-23T09:32:11;7.10;99.90
11736;DHT22;5924;51.398;7.088;2024-02-23T09:34:37;7.20;99.90
11736;DHT22;5924;51.398;7.088;2024-02-23T09:37:03;7.20;99.90
11736;DHT22;5924;51.398;7.088;2024-02-23T09:39:28;7.30;99.90
11736;DHT22;5924;51.398;7.088;2024-02-23T09:41:56;7.40;99.90
11736;DHT22;5924;51.398;7.088;2024-02-23T09:44:22;7.40;99.90
11736;DHT22;5924;51.398;7.088;2024-02-23T09:46:48;7.60;99.90
11736;DHT22;5924;51.398;7.088;2024-02-23T09:49:15;7.70;99.90
11736;DHT22;5924;51.398;7.088;2024-02-23T09:51:42;7.80;99.90
11736;DHT22;5924;51.398;7.088;2024-02-23T09:54:09;7.80;99.90
11736;DHT22;5924;51.398;7.088;2024-02-23T09:56:35;7.80;99.90
11736;DHT22;5924;51.398;7.088;2024-02-23T09:59:03;7.90;99.90
11736;DHT22;5924;51.398;7.088;2024-02-23T10:01:32;8.00;99.90
11736;DHT22;5924;51.398;7.088;2024-02-23T10:04:00;8.20;99.90
11736;DHT22;5924;51.398;7.088;2024-02-23T10:06:27;8.30;99.90
11736;DHT22;5924;51.398;7.088;2024-02-23T10:08:53;8.30;99.90
11736;DHT22;5924;51.398;7.088;2024-02-23T10:11:22;8.20;99.90
11736;DHT22;5924;51.398;7.088;2024-02-23T10:13:48;8.10;99.90
11736;DHT22;5924;51.398;7.088;2024-02-23T10:16:21;8.10;99.90
11736;DHT22;5924;51.398;7.088;2024-02-23T10:18:50;8.00;99.90
11736;DHT22;5924;51.398;7.088;2024-02-23T10:21:16;8.60;99.90
11736;DHT22;5924;51.398;7.088;2024-02-23T10:23:43;8.10;99.90
11736;DHT22;5924;51.398;7.088;2024-02-23T10:26:09;8.10;99.90
11736;DHT22;5924;51.398;7.088;2024-02-23T10:28:37;8.80;99.90
11736;DHT22;5924;51.398;7.088;2024-02-23T10:31:07;7.90;99.90
11736;DHT22;5924;51.398;7.088;2024-02-23T10:33:34;7.80;99.90
11736;DHT22;5924;51.398;7.088;2024-02-23T10:36:00;7.80;99.90
11736;DHT22;5924;51.398;7.088;2024-02-23T10:38:26;9.50;99.90
11736;DHT22;5924;51.398;7.088;2024-02-23T10:40:57;8.00;99.90
11736;DHT22;5924;51.398;7.088;2024-02-23T10:43:41;8.10;99.90
11736;DHT22;5924;51.398;7.088;2024-02-23T10:46:09;8.10;99.90
11736;DHT22;5924;51.398;7.088;2024-02-23T10:48:41;8.10;99.90
11736;DHT22;5924;51.398;7.088;2024-02-23T10:51:07;8.10;99.90
11736;DHT22;5924;51.398;7.088;2024-02-23T10:53:34;8.20;99.90
11736;DHT22;5924;51.398;7.088;2024-02-23T10:56:00;8.20;99.90
11736;DHT22;5924;51.398;7.088;2024-02-23T10:58:27;8.30;99.90
11736;DHT22;5924;51.398;7.088;2024-02-23T11:01:02;8.40;99.90
11736;DHT22;5924;51.398;7.088;2024-02-23T11:03:31;8.50;99.90
11736;DHT22;5924;51.398;7.088;2024-02-23T11:05:59;8.70;99.90
11736;DHT22;5924;51.398;7.088;2024-02-23T11:08:32;8.70;99.90
11736;DHT22;5924;51.398;7.088;2024-02-23T11:11:07;7.40;99.90
11736;DHT22;5924;51.398;7.088;2024-02-23T11:13:37;8.60;99.90
11736;DHT22;5924;51.398;7.088;2024-02-23T11:16:07;8.50;99.90
11736;DHT22;5924;51.398;7.088;2024-02-23T11:18:35;8.40;99.90
11736;DHT22;5924;51.398;7.088;2024-02-23T11:21:03;8.30;99.90
11736;DHT22;5924;51.398;7.088;2024-02-23T11:23:43;8.20;99.90
11736;DHT22;5924;51.398;7.088;2024-02-23T11:26:10;8.10;99.90
11736;DHT22;5924;51.398;7.088;2024-02-23T11:28:50;8.10;99.90
11736;DHT22;5924;51.398;7.088;2024-02-23T11:31:25;8.10;99.90
11736;DHT22;5924;51.398;7.088;2024-02-23T11:33:53;8.10;99.90
11736;DHT22;5924;51.398;7.088;2024-02-23T11:36:29;10.00;99.90
11736;DHT22;5924;51.398;7.088;2024-02-23T11:38:57;9.60;99.90
11736;DHT22;5924;51.398;7.088;2024-02-23T11:41:24;9.90;99.90
11736;DHT22;5924;51.398;7.088;2024-02-23T11:43:51;8.10;99.90
11736;DHT22;5924;51.398;7.088;2024-02-23T11:46:17;8.20;99.90
11736;DHT22;5924;51.398;7.088;2024-02-23T11:48:43;8.20;99.90
11736;DHT22;5924;51.398;7.088;2024-02-23T11:51:10;8.30;99.90
11736;DHT22;5924;51.398;7.088;2024-02-23T11:53:39;8.20;99.90
11736;DHT22;5924;51.398;7.088;2024-02-23T11:56:07;8.10;99.90
11736;DHT22;5924;51.398;7.088;2024-02-23T11:58:33;8.20;99.90
11736;DHT22;5924;51.398;7.088;2024-02-23T12:01:02;8.30;99.90
11736;DHT22;5924;51.398;7.088;2024-02-23T12:03:31;8.30;99.90
11736;DHT22;5924;51.398;7.088;2024-02-23T12:05:57;8.30;99.90
11736;DHT22;5924;51.398;7.088;2024-02-23T12:08:27;8.30;99.90
11736;DHT22;5924;51.398;7.088;2024-02-23T12:10:54;7.20;99.90
11736;DHT22;5924;51.398;7.088;2024-02-23T12:13:20;8.30;99.90
11736;DHT22;5924;51.398;7.088;2024-02-23T12:15:47;8.40;99.90
11736;DHT22;5924;51.398;7.088;2024-02-23T12:18:13;8.40;99.90
11736;DHT22;5924;51.398;7.088;2024-02-23T12:20:40;8.40;99.90
11736;DHT22;5924;51.398;7.088;2024-02-23T12:23:06;8.50;99.90
11736;DHT22;5924;51.398;7.088;2024-02-23T12:25:33;8.60;99.90
11736;DHT22;5924;51.398;7.088;2024-02-23T12:27:59;8.50;99.90
11736;DHT22;5924;51.398;7.088;2024-02-23T12:30:26;8.50;99.90
11736;DHT22;5924;51.398;7.088;2024-02-23T12:33:04;8.40;99.90
11736;DHT22;5924;51.398;7.088;2024-02-23T12:35:30;8.40;99.90
11736;DHT22;5924;51.398;7.088;2024-02-23T12:37:55;8.40;99.90
11736;DHT22;5924;51.398;7.088;2024-02-23T12:40:21;8.50;99.90
11736;DHT22;5924;51.398;7.088;2024-02-23T12:42:46;8.60;99.90
11736;DHT22;5924;51.398;7.088;2024-02-23T12:45:14;8.70;99.90
11736;DHT22;5924;51.398;7.088;2024-02-23T12:47:39;9.00;99.90
11736;DHT22;5924;51.398;7.088;2024-02-23T12:50:06;8.60;99.90
11736;DHT22;5924;51.398;7.088;2024-02-23T12:52:33;8.70;99.90
11736;DHT22;5924;51.398;7.088;2024-02-23T12:54:59;8.70;99.90
11736;DHT22;5924;51.398;7.088;2024-02-23T12:57:25;8.70;99.90
11736;DHT22;5924;51.398;7.088;2024-02-23T12:59:51;8.80;99.90
11736;DHT22;5924;51.398;7.088;2024-02-23T13:02:17;8.70;99.90
11736;DHT22;5924;51.398;7.088;2024-02-23T13:04:43;8.70;99.90
11736;DHT22;5924;51.398;7.088;2024-02-23T13:07:14;8.70;99.90
11736;DHT22;5924;51.398;7.088;2024-02-23T13:09:40;8.70;99.90
11736;DHT22;5924;51.398;7.088;2024-02-23T13:12:06;10.80;99.90
11736;DHT22;5924;51.398;7.088;2024-02-23T13:14:32;8.60;99.90
11736;DHT22;5924;51.398;7.088;2024-02-23T13:16:58;8.50;99.90
11736;DHT22;5924;51.398;7.088;2024-02-23T13:19:23;8.50;99.90
11736;DHT22;5924;51.398;7.088;2024-02-23T13:21:49;8.60;99.90
11736;DHT22;5924;51.398;7.088;2024-02-23T13:24:15;8.70;99.90
11736;DHT22;5924;51.398;7.088;2024-02-23T13:26:41;8.80;99.90
11736;DHT22;5924;51.398;7.088;2024-02-23T13:29:06;8.80;99.90
11736;DHT22;5924;51.398;7.088;2024-02-23T13:31:32;8.60;99.90
11736;DHT22;5924;51.398;7.088;2024-02-23T13:33:58;8.30;99.90
11736;DHT22;5924;51.398;7.088;2024-02-23T13:36:24;8.10;99.90
11736;DHT22;5924;51.398;7.088;2024-02-23T13:38:49;8.10;99.90
11736;DHT22;5924;51.398;7.088;2024-02-23T13:41:17;8.20;99.90
11736;DHT22;5924;51.398;7.088;2024-02-23T13:43:43;8.30;99.90
11736;DHT22;5924;51.398;7.088;2024-02-23T13:46:08;8.40;99.90
11736;DHT22;5924;51.398;7.088;2024-02-23T13:48:35;8.40;99.90
11736;DHT22;5924;51.398;7.088;2024-02-23T13:51:01;8.40;99.90
11736;DHT22;5924;51.398;7.088;2024-02-23T13:53:29;8.40;99.90
11736;DHT22;5924;51.398;7.088;2024-02-23T13:55:56;6.50;99.90
11736;DHT22;5924;51.398;7.088;2024-02-23T13:58:22;8.40;99.90
11736;DHT22;5924;51.398;7.088;2024-02-23T14:00:48;8.50;99.90
11736;DHT22;5924;51.398;7.088;2024-02-23T14:03:17;8.70;99.90
11736;DHT22;5924;51.398;7.088;2024-02-23T14:05:46;8.70;99.90
11736;DHT22;5924;51.398;7.088;2024-02-23T14:08:12;8.80;99.90
11736;DHT22;5924;51.398;7.088;2024-02-23T14:10:38;9.00;99.90
11736;DHT22;5924;51.398;7.088;2024-02-23T14:13:04;9.00;99.90
11736;DHT22;5924;51.398;7.088;2024-02-23T14:15:29;9.10;99.90
11736;DHT22;5924;51.398;7.088;2024-02-23T14:17:55;8.60;99.90
11736;DHT22;5924;51.398;7.088;2024-02-23T14:20:21;9.30;99.90
11736;DHT22;5924;51.398;7.088;2024-02-23T14:22:46;9.30;99.90
11736;DHT22;5924;51.398;7.088;2024-02-23T14:25:12;10.20;99.90
11736;DHT22;5924;51.398;7.088;2024-02-23T14:27:38;9.50;99.90
11736;DHT22;5924;51.398;7.088;2024-02-23T14:30:04;9.50;99.90
11736;DHT22;5924;51.398;7.088;2024-02-23T14:32:31;9.50;99.90
11736;DHT22;5924;51.398;7.088;2024-02-23T14:34:56;9.40;99.90
11736;DHT22;5924;51.398;7.088;2024-02-23T14:37:22;9.40;99.90
11736;DHT22;5924;51.398;7.088;2024-02-23T14:39:48;9.40;99.90
11736;DHT22;5924;51.398;7.088;2024-02-23T14:42:14;9.40;99.90
11736;DHT22;5924;51.398;7.088;2024-02-23T14:44:41;9.30;99.90
11736;DHT22;5924;51.398;7.088;2024-02-23T14:47:06;9.20;99.90
11736;DHT22;5924;51.398;7.088;2024-02-23T14:49:32;9.10;99.90
11736;DHT22;5924;51.398;7.088;2024-02-23T14:51:58;8.90;99.90
11736;DHT22;5924;51.398;7.088;2024-02-23T14:54:24;8.80;99.90
11736;DHT22;5924;51.398;7.088;2024-02-23T14:56:49;8.70;99.90
11736;DHT22;5924;51.398;7.088;2024-02-23T14:59:15;8.70;99.90
11736;DHT22;5924;51.398;7.088;2024-02-23T15:01:41;8.70;99.90
11736;DHT22;5924;51.398;7.088;2024-02-23T15:04:07;8.70;99.90
11736;DHT22;5924;51.398;7.088;2024-02-23T15:06:33;8.70;99.90
11736;DHT22;5924;51.398;7.088;2024-02-23T15:09:00;8.70;99.90
11736;DHT22;5924;51.398;7.088;2024-02-23T15:11:25;8.70;99.90
11736;DHT22;5924;51.398;7.088;2024-02-23T15:13:51;8.70;99.90
11736;DHT22;5924;51.398;7.088;2024-02-23T15:16:22;8.60;99.90
11736;DHT22;5924;51.398;7.088;2024-02-23T15:18:49;8.50;99.90
11736;DHT22;5924;51.398;7.088;2024-02-23T15:21:14;8.30;99.90
11736;DHT22;5924;51.398;7.088;2024-02-23T15:23:40;7.80;99.90
11736;DHT22;5924;51.398;7.088;2024-02-23T15:26:08;7.40;99.90
11736;DHT22;5924;51.398;7.088;2024-02-23T15:28:34;7.30;99.90
11736;DHT22;5924;51.398;7.088;2024-02-23T15:31:00;8.70;99.90
11736;DHT22;5924;51.398;7.088;2024-02-23T15:33:28;7.30;99.90
11736;DHT22;5924;51.398;7.088;2024-02-23T15:35:55;7.30;99.90
11736;DHT22;5924;51.398;7.088;2024-02-23T15:38:20;9.20;99.90
11736;DHT22;5924;51.398;7.088;2024-02-23T15:40:46;7.20;99.90
11736;DHT22;5924;51.398;7.088;2024-02-23T15:43:13;7.20;99.90
11736;DHT22;5924;51.398;7.088;2024-02-23T15:45:38;7.20;99.90
11736;DHT22;5924;51.398;7.088;2024-02-23T15:48:04;7.00;99.90
11736;DHT22;5924;51.398;7.088;2024-02-23T15:50:30;6.70;99.90
11736;DHT22;5924;51.398;7.088;2024-02-23T15:52:56;7.50;99.90
11736;DHT22;5924;51.398;7.088;2024-02-23T15:55:22;6.50;99.90
11736;DHT22;5924;51.398;7.088;2024-02-23T15:57:49;6.40;99.90